Time,TemperatureF,DewpointF,PressureIn,WindDirection,WindDirectionDegrees,WindSpeedMPH,WindSpeedGustMPH,Humidity,HourlyPrecipIn,Conditions,Clouds,dailyrainin,SoftwareType,DateUTC
2013-07-06 06:41:00,0.0,0.0,30.19,South,170,0.0,0.0,0,0.00,,FEW010,0.63,VWS V14.01,2013-07-06 10:41:00,
2013-07-06 06:42:00,0.0,0.0,30.19,South,170,0.0,0.0,0,0.00,,FEW010,0.00,VWS V14.01,2013-07-06 10:42:00,
2013-07-06 07:59:00,69.3,67.5,30.19,North,0,0.0,0.0,94,0.00,,FEW010,0.00,VWS V14.01,2013-07-06 11:59:00,
2013-07-06 08:04:00,69.3,67.5,30.19,North,0,0.0,0.0,94,0.00,,FEW010,0.00,VWS V14.01,2013-07-06 12:04:00,
2013-07-06 08:09:00,69.3,67.5,30.19,North,0,0.0,0.0,94,0.00,,FEW010,0.00,VWS V14.01,2013-07-06 12:09:00,
2013-07-06 08:14:00,69.3,67.5,30.19,North,0,0.0,0.0,94,0.00,,,0.00,VWS V14.01,2013-07-06 12:14:00,
2013-07-06 08:19:00,69.3,67.5,30.19,North,0,0.0,0.0,94,0.00,,,0.00,VWS V14.01,2013-07-06 12:19:00,
2013-07-06 08:24:00,69.6,67.8,30.19,SSE,162,2.7,2.7,94,0.00,,,0.00,VWS V14.01,2013-07-06 12:24:00,
2013-07-06 08:29:00,69.8,68.0,30.19,SSE,162,0.0,2.7,94,0.00,,,0.00,VWS V14.01,2013-07-06 12:29:00,
2013-07-06 08:34:00,70.2,68.4,30.19,South,170,0.0,4.0,94,0.00,,,0.00,VWS V14.01,2013-07-06 12:34:00,
2013-07-06 08:39:00,70.7,68.9,30.19,South,169,0.0,4.0,94,0.00,,,0.00,VWS V14.01,2013-07-06 12:39:00,
2013-07-06 08:44:00,71.2,69.4,30.19,South,169,0.0,0.0,94,0.00,,,0.00,VWS V14.01,2013-07-06 12:44:00,
2013-07-06 08:49:00,71.6,69.5,30.19,South,169,0.0,0.0,93,0.00,,,0.00,VWS V14.01,2013-07-06 12:49:00,
2013-07-06 08:54:00,71.6,69.5,30.19,South,169,0.0,0.0,93,0.00,,,0.00,VWS V14.01,2013-07-06 12:54:00,
2013-07-06 08:59:00,71.6,69.5,30.19,South,169,0.0,0.0,93,0.00,,,0.00,VWS V14.01,2013-07-06 12:59:00,
2013-07-06 09:04:00,71.2,69.4,30.19,South,169,0.0,0.0,94,0.00,,,0.00,VWS V14.01,2013-07-06 13:04:00,
2013-07-06 09:09:00,70.9,69.1,30.19,South,175,0.0,5.4,94,0.00,,,0.00,VWS V14.01,2013-07-06 13:09:00,
2013-07-06 09:15:00,70.7,68.9,30.19,South,175,0.0,0.0,94,0.00,,,0.00,VWS V14.01,2013-07-06 13:15:00,
2013-07-06 09:20:00,70.5,68.7,30.19,SSE,159,0.0,4.9,94,0.00,,,0.00,VWS V14.01,2013-07-06 13:20:00,
2013-07-06 09:25:00,70.5,68.7,30.19,SSE,157,2.7,4.0,94,0.00,,,0.00,VWS V14.01,2013-07-06 13:25:00,
2013-07-06 09:30:00,70.5,68.7,30.19,South,172,2.7,4.9,94,0.00,,,0.00,VWS V14.01,2013-07-06 13:30:00,
2013-07-06 09:35:00,70.5,68.7,30.19,South,179,0.0,4.0,94,0.00,,,0.00,VWS V14.01,2013-07-06 13:35:00,
2013-07-06 09:40:00,70.5,68.7,30.19,SSE,157,0.0,4.0,94,0.00,,,0.00,VWS V14.01,2013-07-06 13:40:00,
2013-07-06 09:45:00,70.5,68.7,30.19,SSE,161,0.0,0.0,94,0.00,,,0.00,VWS V14.01,2013-07-06 13:45:00,
2013-07-06 09:50:00,70.3,68.5,30.19,SSE,161,0.0,0.0,94,0.00,,,0.00,VWS V14.01,2013-07-06 13:50:00,
2013-07-06 09:55:00,70.3,68.5,30.19,SSE,162,0.0,0.0,94,0.00,,,0.00,VWS V14.01,2013-07-06 13:55:00,
2013-07-06 10:00:00,70.5,68.7,30.19,South,172,0.0,0.0,94,0.00,,,0.00,VWS V14.01,2013-07-06 14:00:00,
2013-07-06 10:05:00,70.7,68.9,30.19,South,172,0.0,0.0,94,0.00,,,0.00,VWS V14.01,2013-07-06 14:05:00,
2013-07-06 10:10:00,70.7,68.9,30.19,South,171,0.0,0.0,94,0.00,,,0.00,VWS V14.01,2013-07-06 14:10:00,
2013-07-06 10:15:00,70.7,68.9,30.19,South,173,0.0,3.6,94,0.00,,,0.00,VWS V14.01,2013-07-06 14:15:00,
2013-07-06 10:20:00,70.5,68.7,30.19,South,169,3.6,4.9,94,0.00,,,0.00,VWS V14.01,2013-07-06 14:20:00,
2013-07-06 10:25:00,70.5,68.7,30.19,SSE,166,0.0,4.0,94,0.00,,,0.00,VWS V14.01,2013-07-06 14:25:00,
2013-07-06 10:30:00,70.7,68.9,30.19,SSE,162,0.0,0.0,94,0.00,,,0.00,VWS V14.01,2013-07-06 14:30:00,
2013-07-06 10:35:00,70.9,69.1,30.19,SSE,164,0.0,0.0,94,0.00,,,0.00,VWS V14.01,2013-07-06 14:35:00,
2013-07-06 10:40:00,71.1,69.2,30.19,SSE,164,0.0,0.0,94,0.00,,,0.00,VWS V14.01,2013-07-06 14:40:00,
2013-07-06 10:45:00,71.1,69.2,30.19,SSE,165,0.0,0.0,94,0.00,,,0.00,VWS V14.01,2013-07-06 14:45:00,
2013-07-06 10:50:00,70.9,69.1,30.19,South,177,3.1,3.1,94,0.00,,,0.00,VWS V14.01,2013-07-06 14:50:00,
2013-07-06 10:55:00,70.9,69.1,30.19,South,179,0.0,4.0,94,0.00,,OVC041,0.00,VWS V14.01,2013-07-06 14:55:00,
2013-07-06 11:00:00,70.9,69.1,30.19,SSE,165,2.7,3.6,94,0.00,,OVC041,0.00,VWS V14.01,2013-07-06 15:00:00,
2013-07-06 11:05:00,71.1,69.2,30.19,South,173,0.0,3.6,94,0.00,,OVC041,0.00,VWS V14.01,2013-07-06 15:05:00,
2013-07-06 11:10:00,71.4,69.6,30.19,South,170,0.0,0.0,94,0.00,,OVC041,0.00,VWS V14.01,2013-07-06 15:10:00,
2013-07-06 11:15:00,71.8,70.0,30.19,South,170,0.0,0.0,94,0.00,,OVC041,0.00,VWS V14.01,2013-07-06 15:15:00,
2013-07-06 11:20:00,71.6,70.1,30.19,South,175,0.0,0.0,95,0.00,,OVC041,0.00,VWS V14.01,2013-07-06 15:20:00,
2013-07-06 11:25:00,72.5,70.7,30.19,SSE,151,2.2,2.7,94,0.00,,OVC041,0.00,VWS V14.01,2013-07-06 15:25:00,
2013-07-06 11:30:00,72.7,71.2,30.19,South,172,0.0,0.0,95,0.00,,OVC041,0.00,VWS V14.01,2013-07-06 15:30:00,
2013-07-06 11:35:00,73.2,71.7,30.19,SSE,151,0.0,0.0,95,0.00,,OVC041,0.00,VWS V14.01,2013-07-06 15:35:00,
2013-07-06 11:40:00,73.8,72.2,30.19,SSW,196,2.7,4.0,95,0.00,,OVC041,0.00,VWS V14.01,2013-07-06 15:40:00,
2013-07-06 11:45:00,74.5,73.0,30.19,SSE,159,3.6,8.3,95,0.00,,FEW020,0.00,VWS V14.01,2013-07-06 15:45:00,
2013-07-06 11:50:00,75.4,73.8,30.19,South,172,4.0,4.0,95,0.00,,FEW020,0.00,VWS V14.01,2013-07-06 15:50:00,
2013-07-06 11:55:00,76.6,75.1,30.19,SSE,166,2.7,5.4,95,0.00,,FEW020,0.00,VWS V14.01,2013-07-06 15:55:00,
2013-07-06 12:12:00,75.9,70.4,30.19,NNE,12,0.0,0.0,83,0.00,,FEW010,0.00,VWS V14.01,2013-07-06 16:12:00,
2013-07-06 12:17:00,76.5,69.1,30.19,SW,230,3.6,5.8,78,0.00,,FEW010,0.00,VWS V14.01,2013-07-06 16:17:00,
2013-07-06 12:22:00,77.2,66.2,30.19,SSW,208,3.1,8.7,69,0.00,,FEW020,0.00,VWS V14.01,2013-07-06 16:22:00,
2013-07-06 12:28:00,77.2,63.2,30.19,SW,218,3.1,8.7,62,0.00,,FEW020,0.00,VWS V14.01,2013-07-06 16:28:00,
2013-07-06 12:33:00,77.4,62.4,30.19,South,182,3.6,3.6,60,0.00,,FEW020,0.00,VWS V14.01,2013-07-06 16:33:00,
2013-07-06 12:38:00,77.5,59.6,30.19,NW,322,0.0,3.6,54,0.00,,FEW020,0.00,VWS V14.01,2013-07-06 16:38:00,
2013-07-06 12:43:00,78.1,61.6,30.19,South,178,5.4,5.8,57,0.00,,SCT030,0.00,VWS V14.01,2013-07-06 16:43:00,
2013-07-06 12:48:00,79.0,60.4,30.19,SW,222,2.7,5.8,53,0.00,,SCT030,0.00,VWS V14.01,2013-07-06 16:48:00,
2013-07-06 12:54:00,79.2,57.2,30.19,SW,227,3.6,4.9,47,0.00,,SCT030,0.00,VWS V14.01,2013-07-06 16:54:00,
2013-07-06 12:59:00,79.2,55.4,30.19,South,171,3.1,6.3,44,0.00,,SCT030,0.00,VWS V14.01,2013-07-06 16:59:00,
2013-07-06 13:04:00,79.5,54.4,30.19,South,185,3.1,6.3,42,0.00,,SCT030,0.00,VWS V14.01,2013-07-06 17:04:00,
2013-07-06 13:09:00,79.5,53.1,30.19,SE,145,5.8,6.3,40,0.00,,SCT030,0.00,VWS V14.01,2013-07-06 17:09:00,
2013-07-06 13:15:00,79.5,53.8,30.19,NNW,336,0.0,4.9,41,0.00,,SCT030,0.00,VWS V14.01,2013-07-06 17:15:00,
2013-07-06 13:20:00,79.7,52.6,30.19,North,349,2.7,6.3,39,0.00,,SCT030,0.00,VWS V14.01,2013-07-06 17:20:00,
2013-07-06 13:24:00,79.9,53.4,30.19,SW,220,0.0,4.0,40,0.00,,SCT030,0.00,VWS V14.01,2013-07-06 17:24:00,
2013-07-06 13:30:00,80.1,53.6,30.19,WSW,254,2.7,4.9,40,0.00,,SCT030,0.00,VWS V14.01,2013-07-06 17:30:00,
2013-07-06 13:36:00,79.9,54.1,30.19,NNW,344,2.2,4.0,41,0.00,,SCT030,0.00,VWS V14.01,2013-07-06 17:36:00,
2013-07-06 13:41:00,79.7,53.9,30.19,SSE,165,4.9,4.9,41,0.00,,SCT034,0.00,VWS V14.01,2013-07-06 17:41:00,
2013-07-06 13:46:00,79.9,54.1,30.19,SW,216,2.2,4.9,41,0.00,,SCT034,0.00,VWS V14.01,2013-07-06 17:46:00,
2013-07-06 13:51:00,80.2,55.1,30.19,South,181,4.0,4.0,42,0.00,,SCT034,0.00,VWS V14.01,2013-07-06 17:51:00,
2013-07-06 13:57:00,80.4,54.6,30.19,South,184,0.0,4.0,41,0.00,,SCT034,0.00,VWS V14.01,2013-07-06 17:57:00,
2013-07-06 14:02:00,79.9,53.4,30.19,SSE,164,4.0,4.0,40,0.00,,SCT034,0.00,VWS V14.01,2013-07-06 18:02:00,
2013-07-06 14:07:00,80.2,53.1,30.19,South,187,3.1,4.9,39,0.00,,SCT034,0.00,VWS V14.01,2013-07-06 18:07:00,
2013-07-06 14:12:00,80.6,52.7,30.19,SW,218,2.2,4.5,38,0.00,,SCT034,0.00,VWS V14.01,2013-07-06 18:12:00,
2013-07-06 14:17:00,80.8,52.1,30.19,SW,216,0.0,4.5,37,0.00,,SCT034,0.00,VWS V14.01,2013-07-06 18:17:00,
2013-07-06 14:22:00,80.6,52.0,30.19,SSE,156,0.0,4.0,37,0.00,,SCT034,0.00,VWS V14.01,2013-07-06 18:22:00,
2013-07-06 14:28:00,80.6,52.7,30.16,SW,225,0.0,4.0,38,0.00,,SCT034,0.00,VWS V14.01,2013-07-06 18:28:00,
2013-07-06 14:33:00,80.8,52.1,30.16,SSE,152,5.4,8.3,37,0.00,,SCT034,0.00,VWS V14.01,2013-07-06 18:33:00,
2013-07-06 14:38:00,80.8,51.4,30.16,SSE,158,2.2,8.3,36,0.00,,SCT034,0.00,VWS V14.01,2013-07-06 18:38:00,
2013-07-06 14:43:00,81.1,51.7,30.16,South,181,3.6,3.6,36,0.00,,SCT038,0.00,VWS V14.01,2013-07-06 18:43:00,
2013-07-06 14:49:00,81.5,52.0,30.16,SSW,209,0.0,3.6,36,0.00,,SCT038,0.00,VWS V14.01,2013-07-06 18:49:00,
2013-07-06 14:55:00,81.3,51.1,30.16,SSW,209,0.0,0.0,35,0.00,,SCT038,0.00,VWS V14.01,2013-07-06 18:55:00,
2013-07-06 15:00:00,81.5,51.2,30.16,SSE,168,5.8,5.8,35,0.00,,SCT038,0.00,VWS V14.01,2013-07-06 19:00:00,
2013-07-06 15:05:00,81.1,51.7,30.16,SSE,154,0.0,5.8,36,0.00,,SCT038,0.00,VWS V14.01,2013-07-06 19:05:00,
2013-07-06 15:10:00,81.0,53.7,30.16,SSE,154,0.0,0.0,39,0.00,,SCT038,0.00,VWS V14.01,2013-07-06 19:10:00,
2013-07-06 15:15:00,80.8,52.1,30.16,South,174,3.1,4.0,37,0.00,,SCT038,0.00,VWS V14.01,2013-07-06 19:15:00,
2013-07-06 15:21:00,81.0,53.0,30.16,SSW,205,2.7,2.7,38,0.00,,SCT038,0.00,VWS V14.01,2013-07-06 19:21:00,
2013-07-06 15:26:00,80.4,52.5,30.16,SSE,168,0.0,2.7,38,0.00,,SCT038,0.00,VWS V14.01,2013-07-06 19:26:00,
2013-07-06 15:31:00,80.4,53.2,30.16,South,191,0.0,5.4,39,0.00,,SCT038,0.00,VWS V14.01,2013-07-06 19:31:00,
2013-07-06 15:36:00,80.2,53.8,30.16,SSW,204,0.0,5.4,40,0.00,,SCT038,0.00,VWS V14.01,2013-07-06 19:36:00,
2013-07-06 15:41:00,79.9,52.0,30.16,SW,230,0.0,0.0,38,0.00,,FEW046,0.00,VWS V14.01,2013-07-06 19:41:00,
2013-07-06 15:46:00,80.1,52.9,30.16,South,178,6.3,6.3,39,0.00,,FEW046,0.00,VWS V14.01,2013-07-06 19:46:00,
2013-07-06 15:51:00,80.2,53.8,30.16,South,183,5.4,5.4,40,0.00,,FEW046,0.00,VWS V14.01,2013-07-06 19:51:00,
2013-07-06 15:56:00,80.8,52.1,30.16,SW,217,2.7,5.4,37,0.00,,FEW046,0.00,VWS V14.01,2013-07-06 19:56:00,
2013-07-06 16:01:00,81.0,51.5,30.16,SSW,212,5.8,5.8,36,0.00,,FEW046,0.00,VWS V14.01,2013-07-06 20:01:00,
2013-07-06 16:07:00,81.0,51.5,30.16,South,171,3.1,5.8,36,0.00,,FEW046,0.00,VWS V14.01,2013-07-06 20:07:00,
2013-07-06 16:13:00,80.4,51.8,30.16,South,184,3.6,3.6,37,0.00,,FEW046,0.00,VWS V14.01,2013-07-06 20:13:00,
2013-07-06 16:18:00,80.1,52.2,30.16,South,186,0.0,4.0,38,0.00,,FEW046,0.00,VWS V14.01,2013-07-06 20:18:00,
2013-07-06 16:23:00,80.2,52.3,30.16,SSE,150,0.0,4.0,38,0.00,,FEW046,0.00,VWS V14.01,2013-07-06 20:23:00,
2013-07-06 16:28:00,80.2,51.6,30.16,SSE,166,5.8,7.6,37,0.00,,FEW046,0.00,VWS V14.01,2013-07-06 20:28:00,
2013-07-06 16:34:00,79.9,50.6,30.16,South,184,2.7,5.8,36,0.00,,FEW046,0.00,VWS V14.01,2013-07-06 20:34:00,
2013-07-06 16:39:00,79.9,50.6,30.16,South,191,3.6,5.8,36,0.00,,FEW046,0.00,VWS V14.01,2013-07-06 20:39:00,
2013-07-06 16:45:00,79.7,50.4,30.16,SSW,206,5.8,5.8,36,0.00,,CLR,0.00,VWS V14.01,2013-07-06 20:45:00,
2013-07-06 16:50:00,79.7,50.4,30.16,South,172,3.6,4.0,36,0.00,,CLR,0.00,VWS V14.01,2013-07-06 20:50:00,
2013-07-06 16:55:00,79.5,50.2,30.16,SSE,151,4.9,7.6,36,0.00,,CLR,0.00,VWS V14.01,2013-07-06 20:55:00,
2013-07-06 17:00:00,79.5,51.0,30.16,SSE,158,3.1,4.0,37,0.00,,CLR,0.00,VWS V14.01,2013-07-06 21:00:00,
2013-07-06 17:05:00,79.7,51.9,30.16,SSW,211,0.0,4.0,38,0.00,,CLR,0.00,VWS V14.01,2013-07-06 21:05:00,
2013-07-06 17:11:00,79.5,51.0,30.13,SSE,154,4.9,5.8,37,0.00,,CLR,0.00,VWS V14.01,2013-07-06 21:11:00,
2013-07-06 17:16:00,79.3,50.1,30.13,SSE,164,0.0,5.8,36,0.00,,CLR,0.00,VWS V14.01,2013-07-06 21:16:00,
2013-07-06 17:21:00,79.0,49.0,30.13,South,188,2.7,3.6,35,0.00,,CLR,0.00,VWS V14.01,2013-07-06 21:21:00,
2013-07-06 17:27:00,78.8,49.6,30.13,South,183,0.0,5.4,36,0.00,,CLR,0.00,VWS V14.01,2013-07-06 21:27:00,
2013-07-06 17:32:00,78.8,49.6,30.13,West,268,3.1,3.1,36,0.00,,CLR,0.00,VWS V14.01,2013-07-06 21:32:00,
2013-07-06 17:37:00,78.4,50.0,30.13,SSE,167,2.7,4.9,37,0.00,,CLR,0.00,VWS V14.01,2013-07-06 21:37:00,
2013-07-06 17:42:00,78.4,50.0,30.13,SSW,211,3.6,5.8,37,0.00,,FEW050,0.00,VWS V14.01,2013-07-06 21:42:00,
2013-07-06 17:49:00,78.4,49.3,30.13,NW,311,0.0,5.8,36,0.00,,FEW050,0.00,VWS V14.01,2013-07-06 21:49:00,
2013-07-06 17:54:00,78.4,50.0,30.13,SSW,205,0.0,3.6,37,0.00,,FEW050,0.00,VWS V14.01,2013-07-06 21:54:00,
2013-07-06 17:59:00,78.4,50.8,30.13,SSW,209,0.0,3.6,38,0.00,,FEW050,0.00,VWS V14.01,2013-07-06 21:59:00,
2013-07-06 18:04:00,78.6,50.9,30.13,South,182,0.0,0.0,38,0.00,,FEW050,0.00,VWS V14.01,2013-07-06 22:04:00,
2013-07-06 18:09:00,79.0,51.2,30.13,NNW,338,0.0,0.0,38,0.00,,FEW050,0.00,VWS V14.01,2013-07-06 22:09:00,
2013-07-06 18:15:00,78.6,50.9,30.13,SSW,211,2.7,4.0,38,0.00,,FEW050,0.00,VWS V14.01,2013-07-06 22:15:00,
2013-07-06 18:21:00,78.4,50.8,30.13,North,7,0.0,0.0,38,0.00,,FEW050,0.00,VWS V14.01,2013-07-06 22:21:00,
2013-07-06 18:26:00,78.1,51.1,30.13,SW,222,0.0,5.4,39,0.00,,FEW050,0.00,VWS V14.01,2013-07-06 22:26:00,
2013-07-06 18:31:00,77.9,50.3,30.13,WSW,241,0.0,4.9,38,0.00,,FEW050,0.00,VWS V14.01,2013-07-06 22:31:00,
2013-07-06 18:36:00,77.5,50.0,30.13,SW,222,0.0,4.9,38,0.00,,FEW050,0.00,VWS V14.01,2013-07-06 22:36:00,
2013-07-06 18:41:00,77.2,49.6,30.13,SSW,192,3.1,5.4,38,0.00,,CLR,0.00,VWS V14.01,2013-07-06 22:41:00,
2013-07-06 18:46:00,77.0,50.2,30.13,SW,218,0.0,5.4,39,0.00,,CLR,0.00,VWS V14.01,2013-07-06 22:46:00,
2013-07-06 18:51:00,76.8,50.7,30.13,SW,218,0.0,0.0,40,0.00,,CLR,0.00,VWS V14.01,2013-07-06 22:51:00,
2013-07-06 18:56:00,76.6,50.5,30.13,SSW,205,0.0,0.0,40,0.00,,CLR,0.00,VWS V14.01,2013-07-06 22:56:00,
2013-07-06 19:01:00,76.5,51.0,30.13,SSW,205,0.0,0.0,41,0.00,,CLR,0.00,VWS V14.01,2013-07-06 23:01:00,
2013-07-06 19:06:00,76.5,51.0,30.13,SW,220,0.0,3.6,41,0.00,,CLR,0.00,VWS V14.01,2013-07-06 23:06:00,
2013-07-06 19:12:00,76.3,50.9,30.13,SW,220,0.0,0.0,41,0.00,,CLR,0.00,VWS V14.01,2013-07-06 23:12:00,
2013-07-06 19:17:00,76.1,51.4,30.13,SSW,199,0.0,0.0,42,0.00,,CLR,0.00,VWS V14.01,2013-07-06 23:17:00,
2013-07-06 19:22:00,75.7,51.7,30.13,SSE,159,2.7,5.4,43,0.00,,CLR,0.00,VWS V14.01,2013-07-06 23:22:00,
2013-07-06 19:27:00,75.6,51.5,30.13,SSW,202,3.1,5.4,43,0.00,,CLR,0.00,VWS V14.01,2013-07-06 23:27:00,
2013-07-06 19:32:00,75.4,51.3,30.13,South,176,0.0,3.1,43,0.00,,CLR,0.00,VWS V14.01,2013-07-06 23:32:00,
2013-07-06 19:38:00,75.2,51.8,30.13,South,176,0.0,3.1,44,0.00,,CLR,0.00,VWS V14.01,2013-07-06 23:38:00,
2013-07-06 19:43:00,74.1,51.4,30.13,South,176,0.0,0.0,45,0.00,,CLR,0.00,VWS V14.01,2013-07-06 23:43:00,
2013-07-06 19:48:00,73.2,52.4,30.13,South,176,0.0,0.0,48,0.00,,CLR,0.00,VWS V14.01,2013-07-06 23:48:00,
2013-07-06 19:54:00,72.3,52.1,30.13,South,176,0.0,0.0,49,0.00,,CLR,0.00,VWS V14.01,2013-07-06 23:54:00,
2013-07-06 19:59:00,71.8,52.7,30.13,South,176,0.0,0.0,51,0.00,,CLR,0.00,VWS V14.01,2013-07-06 23:59:00,
2013-07-06 20:04:00,71.1,53.1,30.13,South,176,0.0,0.0,53,0.00,,CLR,0.00,VWS V14.01,2013-07-07 00:04:00,
2013-07-06 20:09:00,70.7,53.8,30.13,South,176,0.0,0.0,55,0.00,,CLR,0.00,VWS V14.01,2013-07-07 00:09:00,
2013-07-06 20:14:00,70.2,53.8,30.13,South,176,0.0,0.0,56,0.00,,CLR,0.00,VWS V14.01,2013-07-07 00:14:00,
2013-07-06 20:19:00,69.8,54.4,30.13,South,176,0.0,0.0,58,0.00,,CLR,0.00,VWS V14.01,2013-07-07 00:19:00,
2013-07-06 20:24:00,69.4,55.0,30.13,South,176,0.0,0.0,60,0.00,,CLR,0.00,VWS V14.01,2013-07-07 00:24:00,
2013-07-06 20:29:00,69.1,55.5,30.13,South,176,0.0,0.0,62,0.00,,CLR,0.00,VWS V14.01,2013-07-07 00:29:00,
2013-07-06 20:34:00,68.7,56.1,30.13,South,176,0.0,0.0,64,0.00,,CLR,0.00,VWS V14.01,2013-07-07 00:34:00,
2013-07-06 20:40:00,68.4,56.2,30.13,South,176,0.0,0.0,65,0.00,,CLR,0.00,VWS V14.01,2013-07-07 00:40:00,
2013-07-06 20:45:00,68.0,55.8,30.13,South,176,0.0,0.0,65,0.00,,CLR,0.00,VWS V14.01,2013-07-07 00:45:00,
2013-07-06 20:50:00,67.6,55.9,30.13,South,176,0.0,0.0,66,0.00,,CLR,0.00,VWS V14.01,2013-07-07 00:50:00,
2013-07-06 20:55:00,67.1,55.4,30.13,South,176,0.0,0.0,66,0.00,,CLR,0.00,VWS V14.01,2013-07-07 00:55:00,
2013-07-06 21:01:00,66.7,55.0,30.13,South,176,0.0,0.0,66,0.00,,CLR,0.00,VWS V14.01,2013-07-07 01:01:00,
2013-07-06 21:06:00,66.4,55.1,30.13,South,176,0.0,0.0,67,0.00,,CLR,0.00,VWS V14.01,2013-07-07 01:06:00,
2013-07-06 21:11:00,66.2,54.9,30.13,South,176,0.0,0.0,67,0.00,,CLR,0.00,VWS V14.01,2013-07-07 01:11:00,
2013-07-06 21:16:00,65.8,55.0,30.13,South,176,0.0,0.0,68,0.00,,CLR,0.00,VWS V14.01,2013-07-07 01:16:00,
2013-07-06 21:21:00,65.7,55.2,30.13,South,176,0.0,0.0,69,0.00,,CLR,0.00,VWS V14.01,2013-07-07 01:21:00,
2013-07-06 21:27:00,65.5,55.5,30.13,South,176,0.0,0.0,70,0.00,,CLR,0.00,VWS V14.01,2013-07-07 01:27:00,
2013-07-06 21:32:00,65.3,55.3,30.13,South,176,0.0,0.0,70,0.00,,CLR,0.00,VWS V14.01,2013-07-07 01:32:00,
2013-07-06 21:37:00,65.1,55.5,30.13,South,176,0.0,0.0,71,0.00,,CLR,0.00,VWS V14.01,2013-07-07 01:37:00,
2013-07-06 21:42:00,64.9,55.7,30.16,South,176,0.0,0.0,72,0.00,,CLR,0.00,VWS V14.01,2013-07-07 01:42:00,
2013-07-06 21:48:00,64.8,55.5,30.16,South,176,0.0,0.0,72,0.00,,CLR,0.00,VWS V14.01,2013-07-07 01:48:00,
2013-07-06 21:53:00,64.6,55.4,30.16,South,176,0.0,0.0,72,0.00,,CLR,0.00,VWS V14.01,2013-07-07 01:53:00,
2013-07-06 21:58:00,64.4,55.6,30.16,South,176,0.0,0.0,73,0.00,,CLR,0.00,VWS V14.01,2013-07-07 01:58:00,
2013-07-06 22:03:00,64.2,55.8,30.16,South,176,0.0,0.0,74,0.00,,CLR,0.00,VWS V14.01,2013-07-07 02:03:00,
2013-07-06 22:08:00,64.0,56.0,30.16,South,176,0.0,0.0,75,0.00,,CLR,0.00,VWS V14.01,2013-07-07 02:08:00,
2013-07-06 22:13:00,63.9,56.2,30.16,South,176,0.0,0.0,76,0.00,,CLR,0.00,VWS V14.01,2013-07-07 02:13:00,
2013-07-06 22:19:00,63.7,56.0,30.16,South,176,0.0,0.0,76,0.00,,CLR,0.00,VWS V14.01,2013-07-07 02:19:00,
2013-07-06 22:24:00,63.5,56.2,30.16,South,176,0.0,0.0,77,0.00,,CLR,0.00,VWS V14.01,2013-07-07 02:24:00,
2013-07-06 22:29:00,63.1,55.8,30.16,South,176,0.0,0.0,77,0.00,,CLR,0.00,VWS V14.01,2013-07-07 02:29:00,
2013-07-06 22:34:00,63.0,56.0,30.16,South,176,0.0,0.0,78,0.00,,CLR,0.00,VWS V14.01,2013-07-07 02:34:00,
2013-07-06 22:39:00,62.8,55.8,30.16,South,176,0.0,0.0,78,0.00,,CLR,0.00,VWS V14.01,2013-07-07 02:39:00,
2013-07-06 22:44:00,62.6,56.0,30.16,South,176,0.0,0.0,79,0.00,,CLR,0.00,VWS V14.01,2013-07-07 02:44:00,
2013-07-06 22:49:00,62.4,56.2,30.16,South,176,0.0,0.0,80,0.00,,CLR,0.00,VWS V14.01,2013-07-07 02:49:00,
2013-07-06 22:54:00,62.2,56.0,30.16,South,176,0.0,0.0,80,0.00,,CLR,0.00,VWS V14.01,2013-07-07 02:54:00,
2013-07-06 22:59:00,62.1,56.2,30.16,South,176,0.0,0.0,81,0.00,,CLR,0.00,VWS V14.01,2013-07-07 02:59:00,
2013-07-06 23:05:00,61.9,56.0,30.16,South,176,0.0,0.0,81,0.00,,CLR,0.00,VWS V14.01,2013-07-07 03:05:00,
2013-07-06 23:10:00,61.7,55.8,30.16,South,176,0.0,0.0,81,0.00,,CLR,0.00,VWS V14.01,2013-07-07 03:10:00,
2013-07-06 23:15:00,61.5,56.0,30.16,South,176,0.0,0.0,82,0.00,,CLR,0.00,VWS V14.01,2013-07-07 03:15:00,
2013-07-06 23:22:00,61.3,55.8,30.16,South,176,0.0,0.0,82,0.00,,CLR,0.00,VWS V14.01,2013-07-07 03:22:00,
2013-07-06 23:27:00,61.3,56.1,30.16,South,176,0.0,0.0,83,0.00,,CLR,0.00,VWS V14.01,2013-07-07 03:27:00,
2013-07-06 23:32:00,61.2,56.0,30.16,South,176,0.0,0.0,83,0.00,,CLR,0.00,VWS V14.01,2013-07-07 03:32:00,
2013-07-06 23:37:00,61.0,55.8,30.16,South,176,0.0,0.0,83,0.00,,CLR,0.00,VWS V14.01,2013-07-07 03:37:00,
2013-07-06 23:42:00,61.0,56.1,30.16,South,176,0.0,0.0,84,0.00,,CLR,0.00,VWS V14.01,2013-07-07 03:42:00,
2013-07-06 23:47:00,60.8,55.9,30.16,South,176,0.0,0.0,84,0.00,,CLR,0.00,VWS V14.01,2013-07-07 03:47:00,
2013-07-06 23:53:00,60.6,56.1,30.16,South,176,0.0,0.0,85,0.00,,CLR,0.00,VWS V14.01,2013-07-07 03:53:00,
2013-07-06 23:58:00,60.6,56.1,30.16,South,176,0.0,0.0,85,0.00,,CLR,0.00,VWS V14.01,2013-07-07 03:58:00,